createdAt,value
2023-05-19T00:02:34.150Z,3.55
2023-05-19T00:05:45.888Z,3.60
2023-05-19T00:08:59.223Z,3.40
2023-05-19T00:12:04.550Z,3.67
2023-05-19T00:15:11.098Z,4.65
2023-05-19T00:18:17.656Z,3.75
2023-05-19T00:21:23.318Z,3.38
2023-05-19T00:24:28.733Z,3.30
2023-05-19T00:27:34.434Z,3.47
2023-05-19T00:30:39.981Z,3.65
2023-05-19T00:33:45.710Z,3.90
2023-05-19T00:36:52.101Z,4.20
2023-05-19T00:39:59.387Z,3.67
2023-05-19T00:43:05.946Z,5.38
2023-05-19T00:46:11.326Z,4.03
2023-05-19T00:49:17.017Z,4.28
2023-05-19T00:52:22.770Z,3.60
2023-05-19T00:55:32.160Z,3.28
2023-05-19T00:58:37.506Z,3.45
2023-05-19T01:01:43.471Z,3.03
2023-05-19T01:04:52.417Z,3.40
2023-05-19T01:07:57.394Z,3.35
2023-05-19T01:11:04.515Z,3.60
2023-05-19T01:14:09.745Z,3.45
2023-05-19T01:17:27.449Z,3.90
2023-05-19T01:20:46.766Z,3.28
2023-05-19T01:24:11.966Z,4.13
2023-05-19T01:27:45.055Z,3.30
2023-05-19T01:30:54.377Z,3.22
2023-05-19T01:34:01.131Z,3.35
2023-05-19T01:37:08.326Z,3.28
2023-05-19T01:40:14.181Z,3.38
2023-05-19T01:43:22.788Z,3.42
2023-05-19T01:46:28.979Z,4.30
2023-05-19T01:49:34.005Z,3.88
2023-05-19T01:52:39.498Z,3.10
2023-05-19T01:55:50.313Z,3.22
2023-05-19T01:59:09.939Z,3.85
2023-05-19T02:02:34.873Z,4.07
2023-05-19T02:05:59.712Z,3.60
2023-05-19T02:09:27.408Z,3.33
2023-05-19T02:12:36.407Z,3.47
2023-05-19T02:15:44.864Z,3.58
2023-05-19T02:18:52.270Z,3.25
2023-05-19T02:21:57.374Z,3.92
2023-05-19T02:25:04.693Z,4.05
2023-05-19T02:28:11.683Z,4.35
2023-05-19T02:31:17.049Z,4.20
2023-05-19T02:34:23.166Z,3.67
2023-05-19T02:37:29.515Z,3.45
2023-05-19T02:40:35.119Z,3.85
2023-05-19T02:43:41.030Z,4.63
2023-05-19T02:46:47.050Z,3.80
2023-05-19T02:49:53.005Z,3.33
2023-05-19T02:52:58.352Z,3.20
2023-05-19T02:56:04.660Z,3.53
2023-05-19T02:59:10.058Z,3.15
2023-05-19T03:02:15.711Z,4.03
2023-05-19T03:05:21.806Z,3.35
2023-05-19T03:08:27.475Z,3.97
2023-05-19T03:11:32.792Z,3.28
2023-05-19T03:14:38.912Z,4.05
2023-05-19T03:17:44.868Z,3.35
2023-05-19T03:20:50.723Z,3.65
2023-05-19T03:23:55.993Z,3.85
2023-05-19T03:27:02.928Z,3.97
2023-05-19T03:30:09.409Z,4.32
2023-05-19T03:33:28.378Z,4.07
2023-05-19T03:36:40.397Z,4.30
2023-05-19T03:39:51.632Z,3.97
2023-05-19T03:42:57.093Z,4.00
2023-05-19T03:46:02.943Z,4.13
2023-05-19T03:49:27.112Z,4.22
2023-05-19T03:52:38.903Z,4.45
2023-05-19T03:55:55.804Z,6.30
2023-05-19T03:59:00.926Z,3.95
2023-05-19T04:02:07.736Z,4.65
2023-05-19T04:05:16.867Z,4.80
2023-05-19T04:08:22.098Z,4.68
2023-05-19T04:11:27.733Z,4.20
2023-05-19T04:14:32.964Z,3.67
2023-05-19T04:17:38.684Z,3.92
2023-05-19T04:20:44.352Z,3.28
2023-05-19T04:23:49.910Z,3.67
2023-05-19T04:26:56.722Z,4.13
2023-05-19T04:30:04.186Z,3.67
2023-05-19T04:33:10.813Z,3.88
2023-05-19T04:36:18.670Z,4.32
2023-05-19T04:39:24.327Z,4.40
2023-05-19T04:42:33.337Z,4.35
2023-05-19T04:45:43.092Z,4.40
2023-05-19T04:48:51.152Z,4.97
2023-05-19T04:51:56.958Z,4.30
2023-05-19T04:55:07.902Z,4.10
2023-05-19T04:58:14.088Z,5.05
2023-05-19T05:01:22.642Z,4.45
2023-05-19T05:04:28.885Z,4.93
2023-05-19T05:07:34.690Z,5.20
2023-05-19T05:10:40.232Z,5.45
2023-05-19T05:13:45.670Z,6.38
2023-05-19T05:16:52.869Z,4.75
2023-05-19T05:20:04.908Z,5.47
2023-05-19T05:23:14.827Z,5.50
2023-05-19T05:26:24.897Z,5.25
2023-05-19T05:29:34.411Z,5.65
2023-05-19T05:32:42.966Z,5.32
2023-05-19T05:36:02.454Z,5.38
2023-05-19T05:39:07.629Z,4.93
2023-05-19T05:42:14.689Z,5.72
2023-05-19T05:45:19.897Z,5.50
2023-05-19T05:48:25.929Z,5.13
2023-05-19T05:51:33.142Z,5.50
2023-05-19T05:54:39.415Z,4.63
2023-05-19T05:57:45.442Z,5.13
2023-05-19T06:00:53.365Z,4.90
2023-05-19T06:03:58.909Z,4.70
2023-05-19T06:07:05.464Z,5.10
2023-05-19T06:10:14.057Z,4.88
2023-05-19T06:13:22.950Z,5.32
2023-05-19T06:16:29.189Z,5.07
2023-05-19T06:19:34.806Z,4.43
2023-05-19T06:22:41.744Z,5.60
2023-05-19T06:25:48.335Z,4.20
2023-05-19T06:28:53.936Z,5.78
2023-05-19T06:32:00.187Z,5.93
2023-05-19T06:35:06.189Z,5.13
2023-05-19T06:38:11.611Z,4.65
2023-05-19T06:41:17.411Z,4.20
2023-05-19T06:44:25.787Z,4.70
2023-05-19T06:47:31.487Z,4.72
2023-05-19T06:50:37.585Z,4.32
2023-05-19T06:53:43.512Z,4.20
2023-05-19T06:56:50.689Z,3.90
2023-05-19T06:59:56.206Z,3.97
2023-05-19T07:03:02.683Z,4.50
2023-05-19T07:06:08.552Z,4.50
2023-05-19T07:09:14.964Z,4.53
2023-05-19T07:12:21.208Z,4.28
2023-05-19T07:15:26.643Z,3.42
2023-05-19T07:18:32.272Z,3.40
2023-05-19T07:21:38.212Z,4.43
2023-05-19T07:24:43.833Z,2.72
2023-05-19T07:27:49.618Z,4.10
2023-05-19T07:30:55.247Z,4.20
2023-05-19T07:34:01.429Z,2.97
2023-05-19T07:37:07.384Z,3.13
2023-05-19T07:40:13.056Z,4.28
2023-05-19T07:43:18.728Z,3.80
2023-05-19T07:46:24.259Z,4.35
2023-05-19T07:49:29.995Z,4.97
2023-05-19T07:52:35.477Z,4.10
2023-05-19T07:55:41.397Z,4.78
2023-05-19T07:58:47.221Z,4.22
2023-05-19T08:01:53.043Z,4.32
2023-05-19T08:04:58.848Z,4.47
2023-05-19T08:08:04.622Z,4.38
2023-05-19T08:11:10.313Z,3.92
2023-05-19T08:14:16.181Z,4.55
2023-05-19T08:17:21.250Z,4.18
2023-05-19T08:20:26.598Z,3.90
2023-05-19T08:23:32.367Z,4.72
2023-05-19T08:26:38.261Z,4.53
2023-05-19T08:29:43.854Z,4.65
2023-05-19T08:32:49.713Z,4.93
2023-05-19T08:35:58.464Z,5.20
2023-05-19T08:39:04.695Z,4.95
2023-05-19T08:42:10.433Z,4.03
2023-05-19T08:45:16.376Z,5.00
2023-05-19T08:48:22.794Z,5.00
2023-05-19T08:51:39.540Z,4.55
2023-05-19T08:55:01.488Z,4.63
2023-05-19T08:58:07.590Z,4.70
2023-05-19T09:01:19.318Z,5.05
2023-05-19T09:04:29.788Z,4.85
2023-05-19T09:07:38.198Z,4.32
2023-05-19T09:10:43.595Z,4.38
2023-05-19T09:13:49.848Z,4.97
2023-05-19T09:16:56.122Z,5.32
2023-05-19T09:20:11.549Z,5.72
2023-05-19T09:23:17.869Z,5.30
2023-05-19T09:26:23.931Z,4.65
2023-05-19T09:29:29.418Z,5.85
2023-05-19T09:32:36.148Z,5.50
2023-05-19T09:35:47.157Z,5.50
2023-05-19T09:38:52.438Z,4.88
2023-05-19T09:42:00.157Z,5.53
2023-05-19T09:45:07.163Z,5.65
2023-05-19T09:48:12.983Z,5.30
2023-05-19T09:51:18.360Z,5.20
2023-05-19T09:54:25.448Z,5.03
2023-05-19T09:57:37.982Z,4.80
2023-05-19T10:00:43.545Z,5.13
2023-05-19T10:03:49.416Z,4.60
2023-05-19T10:06:56.147Z,5.88
2023-05-19T10:10:01.740Z,4.15
2023-05-19T10:13:08.106Z,4.43
2023-05-19T10:16:17.030Z,5.10
2023-05-19T10:19:27.708Z,4.05
2023-05-19T10:22:34.004Z,3.40
2023-05-19T10:25:41.079Z,3.22
2023-05-19T10:28:46.412Z,1.92
2023-05-19T10:31:54.645Z,2.40
2023-05-19T10:35:24.782Z,2.20
2023-05-19T10:38:33.670Z,2.30
2023-05-19T10:41:52.022Z,2.88
2023-05-19T10:45:24.290Z,3.55
2023-05-19T10:48:35.450Z,2.03
2023-05-19T10:51:40.705Z,2.20
2023-05-19T10:54:46.594Z,2.38
2023-05-19T10:57:58.535Z,2.50
2023-05-19T11:01:08.667Z,3.13
2023-05-19T11:04:16.181Z,3.40
2023-05-19T11:07:22.592Z,3.05
2023-05-19T11:10:28.166Z,3.25
2023-05-19T11:13:34.170Z,3.30
2023-05-19T11:16:42.048Z,4.10
2023-05-19T11:19:55.889Z,4.43
2023-05-19T11:23:20.400Z,4.15
2023-05-19T11:26:42.939Z,4.95
2023-05-19T11:29:49.258Z,5.70
2023-05-19T11:32:54.578Z,4.28
2023-05-19T11:36:00.138Z,3.63
2023-05-19T11:39:06.752Z,3.55
2023-05-19T11:42:12.141Z,4.57
2023-05-19T11:45:17.672Z,4.57
2023-05-19T11:48:23.825Z,4.47
2023-05-19T11:51:29.628Z,4.65
2023-05-19T11:54:36.903Z,4.35
2023-05-19T11:57:47.047Z,4.57
2023-05-19T12:01:04.982Z,4.68
2023-05-19T12:04:10.655Z,4.50
2023-05-19T12:07:26.218Z,5.43
2023-05-19T12:10:34.074Z,4.78
2023-05-19T12:13:39.609Z,4.35
2023-05-19T12:16:44.773Z,4.47
2023-05-19T12:19:50.634Z,4.00
2023-05-19T12:22:56.718Z,4.28
2023-05-19T12:26:02.932Z,3.75
2023-05-19T12:29:08.465Z,2.72
2023-05-19T12:32:14.039Z,3.35
2023-05-19T12:35:20.818Z,3.67
2023-05-19T12:38:26.298Z,3.33
2023-05-19T12:41:32.484Z,3.70
2023-05-19T12:44:39.807Z,3.65
2023-05-19T12:47:49.458Z,3.78
2023-05-19T12:50:55.961Z,4.05
2023-05-19T12:54:05.093Z,4.15
2023-05-19T12:57:11.742Z,4.20
2023-05-19T13:00:23.116Z,4.50
2023-05-19T13:03:28.867Z,4.40
2023-05-19T13:06:36.378Z,4.68
2023-05-19T13:09:42.464Z,4.80
2023-05-19T13:12:47.738Z,4.18
2023-05-19T13:15:54.021Z,5.60
2023-05-19T13:18:59.803Z,6.03
2023-05-19T13:22:05.358Z,4.80
2023-05-19T13:25:11.251Z,5.75
2023-05-19T13:28:16.480Z,5.53
2023-05-19T13:31:23.771Z,3.17
2023-05-19T13:34:28.959Z,3.10
2023-05-19T13:37:35.150Z,2.95
2023-05-19T13:40:40.802Z,2.67
2023-05-19T13:43:46.572Z,2.83
2023-05-19T13:46:52.439Z,2.50
2023-05-19T13:49:58.095Z,2.58
2023-05-19T13:53:04.109Z,2.30
2023-05-19T13:56:09.605Z,2.22
2023-05-19T13:59:17.449Z,2.97
2023-05-19T14:02:22.821Z,2.85
2023-05-19T14:05:29.346Z,2.70
2023-05-19T14:08:35.073Z,2.63
2023-05-19T14:11:41.124Z,2.67
2023-05-19T14:14:48.625Z,2.80
2023-05-19T14:17:54.116Z,2.80
2023-05-19T14:20:59.715Z,3.22
2023-05-19T14:24:05.553Z,3.35
2023-05-19T14:27:11.161Z,2.90
2023-05-19T14:30:16.433Z,3.95
2023-05-19T14:33:22.049Z,3.40
2023-05-19T14:36:27.362Z,3.33
2023-05-19T14:39:32.732Z,3.20
2023-05-19T14:42:38.455Z,3.47
2023-05-19T14:45:45.121Z,3.88
2023-05-19T14:48:50.397Z,3.50
2023-05-19T14:51:56.470Z,4.68
2023-05-19T14:55:01.752Z,3.28
2023-05-19T14:58:13.018Z,2.85
2023-05-19T15:01:32.692Z,3.97
2023-05-19T15:04:37.928Z,3.50
2023-05-19T15:07:43.473Z,3.08
2023-05-19T15:10:50.643Z,2.80
2023-05-19T15:13:56.168Z,1.92
2023-05-19T15:17:02.304Z,2.55
2023-05-19T15:20:08.097Z,1.73
2023-05-19T15:23:13.472Z,2.05
2023-05-19T15:26:19.123Z,1.80
2023-05-19T15:29:24.792Z,1.45
2023-05-19T15:32:30.988Z,2.08
2023-05-19T15:35:36.264Z,2.33
2023-05-19T15:38:42.125Z,2.15
2023-05-19T15:41:47.473Z,2.50
2023-05-19T15:44:52.961Z,2.50
2023-05-19T15:47:58.660Z,2.92
2023-05-19T15:51:04.952Z,2.63
2023-05-19T15:54:11.082Z,2.65
2023-05-19T15:57:16.629Z,1.88
2023-05-19T16:00:22.600Z,2.05
2023-05-19T16:03:28.260Z,1.83
2023-05-19T16:06:33.779Z,2.17
2023-05-19T16:09:39.179Z,2.47
2023-05-19T16:12:44.987Z,1.85
2023-05-19T16:15:51.229Z,2.13
2023-05-19T16:18:57.035Z,1.77
2023-05-19T16:22:03.146Z,1.88
2023-05-19T16:25:09.095Z,1.80
2023-05-19T16:28:14.935Z,2.20
2023-05-19T16:31:20.501Z,1.98
2023-05-19T16:34:26.700Z,1.85
2023-05-19T16:37:33.731Z,2.50
2023-05-19T16:40:39.470Z,2.40
2023-05-19T16:43:44.992Z,2.45
2023-05-19T16:46:50.728Z,3.17
2023-05-19T16:49:56.708Z,2.75
2023-05-19T16:53:02.319Z,2.92
2023-05-19T16:56:08.584Z,2.63
2023-05-19T16:59:14.114Z,4.10
2023-05-19T17:02:19.233Z,2.50
2023-05-19T17:05:24.820Z,2.80
2023-05-19T17:08:30.729Z,3.15
2023-05-19T17:11:36.412Z,2.83
2023-05-19T17:14:43.800Z,2.75
2023-05-19T17:17:49.583Z,3.42
2023-05-19T17:20:55.293Z,2.90
2023-05-19T17:24:01.332Z,2.97
2023-05-19T17:27:06.866Z,3.20
2023-05-19T17:30:14.245Z,3.35
2023-05-19T17:33:19.752Z,3.97
2023-05-19T17:36:25.393Z,4.57
2023-05-19T17:39:30.948Z,4.28
2023-05-19T17:42:36.541Z,4.70
2023-05-19T17:45:42.476Z,4.05
2023-05-19T17:48:48.374Z,4.55
2023-05-19T17:51:54.308Z,4.38
2023-05-19T17:55:00.148Z,4.60
2023-05-19T17:58:06.152Z,4.07
2023-05-19T18:01:11.447Z,4.15
2023-05-19T18:04:17.580Z,4.30
2023-05-19T18:07:26.220Z,5.13
2023-05-19T18:10:36.414Z,4.45
2023-05-19T18:13:42.847Z,4.68
2023-05-19T18:16:50.236Z,6.28
2023-05-19T18:19:56.270Z,4.53
2023-05-19T18:23:01.972Z,6.55
2023-05-19T18:26:07.731Z,4.90
2023-05-19T18:29:15.053Z,4.88
2023-05-19T18:32:21.063Z,4.40
2023-05-19T18:35:27.072Z,4.18
2023-05-19T18:38:32.363Z,5.22
2023-05-19T18:41:41.625Z,4.63
2023-05-19T18:44:48.172Z,4.80
2023-05-19T18:47:54.307Z,4.80
2023-05-19T18:51:00.208Z,4.55
2023-05-19T18:54:07.492Z,4.55
2023-05-19T18:57:14.582Z,4.85
2023-05-19T19:00:20.382Z,4.93
2023-05-19T19:03:26.070Z,4.90
2023-05-19T19:06:31.569Z,5.68
2023-05-19T19:09:37.152Z,5.40
2023-05-19T19:12:42.371Z,5.15
2023-05-19T19:15:47.894Z,4.72
2023-05-19T19:18:53.768Z,5.70
2023-05-19T19:21:59.290Z,5.38
2023-05-19T19:25:05.421Z,5.65
2023-05-19T19:28:12.981Z,6.00
2023-05-19T19:31:19.182Z,5.57
2023-05-19T19:34:25.507Z,6.60
2023-05-19T19:37:30.636Z,5.70
2023-05-19T19:40:36.544Z,6.30
2023-05-19T19:43:42.545Z,6.07
2023-05-19T19:46:48.288Z,6.43
2023-05-19T19:49:54.421Z,6.40
2023-05-19T19:53:00.906Z,5.53
2023-05-19T19:56:07.540Z,5.60
2023-05-19T19:59:13.330Z,6.00
2023-05-19T20:02:18.714Z,6.22
2023-05-19T20:05:24.508Z,6.38
2023-05-19T20:08:30.043Z,6.75
2023-05-19T20:11:35.926Z,6.63
2023-05-19T20:14:41.652Z,6.78
2023-05-19T20:17:47.336Z,6.47
2023-05-19T20:20:52.569Z,6.60
2023-05-19T20:23:58.261Z,7.30
2023-05-19T20:27:03.777Z,6.53
2023-05-19T20:30:09.796Z,7.00
2023-05-19T20:33:15.069Z,5.97
2023-05-19T20:36:21.278Z,8.07
2023-05-19T20:39:27.206Z,7.03
2023-05-19T20:42:32.812Z,7.65
2023-05-19T20:45:38.669Z,6.88
2023-05-19T20:48:44.967Z,6.82
2023-05-19T20:51:50.198Z,7.10
2023-05-19T20:54:55.906Z,7.70
2023-05-19T20:58:01.550Z,7.68
2023-05-19T21:01:07.020Z,7.53
2023-05-19T21:04:12.134Z,7.20
2023-05-19T21:07:17.596Z,8.45
2023-05-19T21:10:22.963Z,7.93
2023-05-19T21:13:28.579Z,8.30
2023-05-19T21:16:34.452Z,7.72
2023-05-19T21:19:39.868Z,6.55
2023-05-19T21:22:45.516Z,8.60
2023-05-19T21:25:51.080Z,6.65
2023-05-19T21:28:56.523Z,7.55
2023-05-19T21:32:02.288Z,7.40
2023-05-19T21:35:07.767Z,8.48
2023-05-19T21:38:23.547Z,7.63
2023-05-19T21:41:32.590Z,7.35
2023-05-19T21:44:38.030Z,7.40
2023-05-19T21:47:43.663Z,6.55
2023-05-19T21:50:54.209Z,7.20
2023-05-19T21:53:59.763Z,6.10
2023-05-19T21:57:05.802Z,6.60
2023-05-19T22:00:13.469Z,6.32
2023-05-19T22:03:19.727Z,7.40
2023-05-19T22:06:25.075Z,6.90
2023-05-19T22:09:30.534Z,6.60
2023-05-19T22:12:37.399Z,6.55
2023-05-19T22:15:43.262Z,6.50
2023-05-19T22:18:49.170Z,7.10
2023-05-19T22:22:01.879Z,6.47
2023-05-19T22:25:12.160Z,7.15
2023-05-19T22:28:17.421Z,7.13
2023-05-19T22:31:22.849Z,7.15
2023-05-19T22:34:28.196Z,7.93
2023-05-19T22:37:33.572Z,7.00
2023-05-19T22:40:39.342Z,7.50
2023-05-19T22:43:44.713Z,7.75
2023-05-19T22:46:50.235Z,8.38
2023-05-19T22:49:57.138Z,7.47
2023-05-19T22:53:03.016Z,7.30
2023-05-19T22:56:09.219Z,6.88
2023-05-19T22:59:18.129Z,7.63
2023-05-19T23:02:23.592Z,6.50
2023-05-19T23:05:29.667Z,7.97
2023-05-19T23:08:35.238Z,6.95
2023-05-19T23:11:40.676Z,6.97
2023-05-19T23:14:47.163Z,7.75
2023-05-19T23:17:52.886Z,6.55
2023-05-19T23:20:58.388Z,6.65
2023-05-19T23:24:04.934Z,7.18
2023-05-19T23:27:10.431Z,6.60
2023-05-19T23:30:16.178Z,7.57
2023-05-19T23:33:21.847Z,7.50
2023-05-19T23:36:27.439Z,8.02
2023-05-19T23:39:33.043Z,7.00
2023-05-19T23:42:38.660Z,7.13
2023-05-19T23:45:44.496Z,6.95
2023-05-19T23:48:49.904Z,7.28
2023-05-19T23:51:55.140Z,6.95
2023-05-19T23:55:00.616Z,7.85
2023-05-19T23:58:05.891Z,6.75
